sensor_id;sensor_type;location;lat;lon;timestamp;P1;durP1;ratioP1;P2;durP2;ratioP2
20095;SDS011;10207;50.942;6.900;2023-06-26T00:00:30;7.47;;;4.72;;
20095;SDS011;10207;50.942;6.900;2023-06-26T00:02:57;6.75;;;4.90;;
20095;SDS011;10207;50.942;6.900;2023-06-26T00:05:23;8.68;;;6.22;;
20095;SDS011;10207;50.942;6.900;2023-06-26T00:07:49;7.13;;;5.20;;
20095;SDS011;10207;50.942;6.900;2023-06-26T00:10:15;6.18;;;4.68;;
20095;SDS011;10207;50.942;6.900;2023-06-26T00:12:41;6.90;;;4.70;;
20095;SDS011;10207;50.942;6.900;2023-06-26T00:15:07;7.35;;;4.97;;
20095;SDS011;10207;50.942;6.900;2023-06-26T00:17:33;6.10;;;4.15;;
20095;SDS011;10207;50.942;6.900;2023-06-26T00:20:02;7.28;;;4.75;;
20095;SDS011;10207;50.942;6.900;2023-06-26T00:22:32;9.07;;;5.43;;
20095;SDS011;10207;50.942;6.900;2023-06-26T00:24:58;7.90;;;4.53;;
20095;SDS011;10207;50.942;6.900;2023-06-26T00:27:24;6.80;;;4.28;;
20095;SDS011;10207;50.942;6.900;2023-06-26T00:29:50;6.88;;;4.65;;
20095;SDS011;10207;50.942;6.900;2023-06-26T00:32:18;6.32;;;4.75;;
20095;SDS011;10207;50.942;6.900;2023-06-26T00:34:44;6.75;;;4.68;;
20095;SDS011;10207;50.942;6.900;2023-06-26T00:37:12;7.60;;;4.78;;
20095;SDS011;10207;50.942;6.900;2023-06-26T00:39:38;6.93;;;4.82;;
20095;SDS011;10207;50.942;6.900;2023-06-26T00:42:04;6.22;;;4.53;;
20095;SDS011;10207;50.942;6.900;2023-06-26T00:44:30;9.35;;;5.03;;
20095;SDS011;10207;50.942;6.900;2023-06-26T00:46:56;9.25;;;5.10;;
20095;SDS011;10207;50.942;6.900;2023-06-26T00:49:22;5.82;;;4.38;;
20095;SDS011;10207;50.942;6.900;2023-06-26T00:51:48;8.20;;;5.25;;
20095;SDS011;10207;50.942;6.900;2023-06-26T00:54:14;9.02;;;5.00;;
20095;SDS011;10207;50.942;6.900;2023-06-26T00:56:46;6.43;;;4.90;;
20095;SDS011;10207;50.942;6.900;2023-06-26T00:59:12;7.28;;;5.60;;
20095;SDS011;10207;50.942;6.900;2023-06-26T01:01:38;7.85;;;5.15;;
20095;SDS011;10207;50.942;6.900;2023-06-26T01:04:04;6.68;;;5.15;;
20095;SDS011;10207;50.942;6.900;2023-06-26T01:06:31;7.95;;;5.75;;
20095;SDS011;10207;50.942;6.900;2023-06-26T01:09:01;7.22;;;5.68;;
20095;SDS011;10207;50.942;6.900;2023-06-26T01:11:27;7.20;;;5.18;;
20095;SDS011;10207;50.942;6.900;2023-06-26T01:13:53;7.70;;;5.15;;
20095;SDS011;10207;50.942;6.900;2023-06-26T01:16:21;8.27;;;4.93;;
20095;SDS011;10207;50.942;6.900;2023-06-26T01:18:47;7.25;;;5.47;;
20095;SDS011;10207;50.942;6.900;2023-06-26T01:21:14;7.10;;;5.43;;
20095;SDS011;10207;50.942;6.900;2023-06-26T01:26:22;7.43;;;5.47;;
20095;SDS011;10207;50.942;6.900;2023-06-26T01:28:49;6.90;;;5.15;;
20095;SDS011;10207;50.942;6.900;2023-06-26T01:31:16;8.27;;;5.65;;
20095;SDS011;10207;50.942;6.900;2023-06-26T01:33:43;7.85;;;5.50;;
20095;SDS011;10207;50.942;6.900;2023-06-26T01:36:10;7.55;;;5.10;;
20095;SDS011;10207;50.942;6.900;2023-06-26T01:38:35;7.32;;;5.20;;
20095;SDS011;10207;50.942;6.900;2023-06-26T01:41:02;8.00;;;5.30;;
20095;SDS011;10207;50.942;6.900;2023-06-26T01:45:57;6.85;;;5.07;;
20095;SDS011;10207;50.942;6.900;2023-06-26T01:48:28;7.28;;;5.18;;
20095;SDS011;10207;50.942;6.900;2023-06-26T01:50:56;7.47;;;5.13;;
20095;SDS011;10207;50.942;6.900;2023-06-26T01:53:24;7.35;;;5.60;;
20095;SDS011;10207;50.942;6.900;2023-06-26T01:55:55;12.38;;;5.47;;
20095;SDS011;10207;50.942;6.900;2023-06-26T01:58:25;8.88;;;5.53;;
20095;SDS011;10207;50.942;6.900;2023-06-26T02:00:51;9.68;;;5.70;;
20095;SDS011;10207;50.942;6.900;2023-06-26T02:03:17;10.68;;;6.28;;
20095;SDS011;10207;50.942;6.900;2023-06-26T02:05:43;7.07;;;5.70;;
20095;SDS011;10207;50.942;6.900;2023-06-26T02:08:10;7.80;;;5.78;;
20095;SDS011;10207;50.942;6.900;2023-06-26T02:10:36;6.80;;;5.70;;
20095;SDS011;10207;50.942;6.900;2023-06-26T02:13:02;9.05;;;5.53;;
20095;SDS011;10207;50.942;6.900;2023-06-26T02:15:28;7.55;;;5.93;;
20095;SDS011;10207;50.942;6.900;2023-06-26T02:17:54;8.50;;;5.60;;
20095;SDS011;10207;50.942;6.900;2023-06-26T02:20:20;9.18;;;6.22;;
20095;SDS011;10207;50.942;6.900;2023-06-26T02:22:46;8.93;;;6.35;;
20095;SDS011;10207;50.942;6.900;2023-06-26T02:25:14;8.85;;;6.07;;
20095;SDS011;10207;50.942;6.900;2023-06-26T02:27:40;7.25;;;5.57;;
20095;SDS011;10207;50.942;6.900;2023-06-26T02:30:07;7.60;;;5.82;;
20095;SDS011;10207;50.942;6.900;2023-06-26T02:32:36;8.48;;;6.28;;
20095;SDS011;10207;50.942;6.900;2023-06-26T02:35:02;7.93;;;5.38;;
20095;SDS011;10207;50.942;6.900;2023-06-26T02:37:28;10.93;;;5.63;;
20095;SDS011;10207;50.942;6.900;2023-06-26T02:39:54;6.72;;;5.53;;
20095;SDS011;10207;50.942;6.900;2023-06-26T02:42:20;11.88;;;6.30;;
20095;SDS011;10207;50.942;6.900;2023-06-26T02:44:46;8.38;;;5.55;;
20095;SDS011;10207;50.942;6.900;2023-06-26T02:47:11;8.88;;;5.70;;
20095;SDS011;10207;50.942;6.900;2023-06-26T02:49:41;8.30;;;5.63;;
20095;SDS011;10207;50.942;6.900;2023-06-26T02:52:07;8.48;;;5.63;;
20095;SDS011;10207;50.942;6.900;2023-06-26T02:54:33;9.52;;;6.88;;
20095;SDS011;10207;50.942;6.900;2023-06-26T02:57:03;7.82;;;5.60;;
20095;SDS011;10207;50.942;6.900;2023-06-26T02:59:30;7.43;;;6.05;;
20095;SDS011;10207;50.942;6.900;2023-06-26T03:01:57;7.80;;;5.72;;
20095;SDS011;10207;50.942;6.900;2023-06-26T03:04:30;8.30;;;5.40;;
20095;SDS011;10207;50.942;6.900;2023-06-26T03:06:56;6.85;;;4.97;;
20095;SDS011;10207;50.942;6.900;2023-06-26T03:09:22;8.70;;;5.38;;
20095;SDS011;10207;50.942;6.900;2023-06-26T03:11:49;10.27;;;5.85;;
20095;SDS011;10207;50.942;6.900;2023-06-26T03:14:15;7.55;;;5.88;;
20095;SDS011;10207;50.942;6.900;2023-06-26T03:16:41;6.78;;;5.20;;
20095;SDS011;10207;50.942;6.900;2023-06-26T03:19:07;12.23;;;5.95;;
20095;SDS011;10207;50.942;6.900;2023-06-26T03:21:48;8.95;;;5.28;;
20095;SDS011;10207;50.942;6.900;2023-06-26T03:24:14;8.68;;;5.03;;
20095;SDS011;10207;50.942;6.900;2023-06-26T03:26:40;7.35;;;4.85;;
20095;SDS011;10207;50.942;6.900;2023-06-26T03:29:06;7.68;;;5.22;;
20095;SDS011;10207;50.942;6.900;2023-06-26T03:31:32;6.30;;;4.97;;
20095;SDS011;10207;50.942;6.900;2023-06-26T03:33:58;10.00;;;5.40;;
20095;SDS011;10207;50.942;6.900;2023-06-26T03:36:25;6.65;;;4.60;;
20095;SDS011;10207;50.942;6.900;2023-06-26T03:38:51;8.10;;;5.13;;
20095;SDS011;10207;50.942;6.900;2023-06-26T03:41:23;5.95;;;4.53;;
20095;SDS011;10207;50.942;6.900;2023-06-26T03:43:49;9.40;;;4.63;;
20095;SDS011;10207;50.942;6.900;2023-06-26T03:46:19;10.75;;;5.47;;
20095;SDS011;10207;50.942;6.900;2023-06-26T03:48:46;10.65;;;4.85;;
20095;SDS011;10207;50.942;6.900;2023-06-26T03:51:13;8.90;;;4.93;;
20095;SDS011;10207;50.942;6.900;2023-06-26T03:53:40;8.27;;;4.68;;
20095;SDS011;10207;50.942;6.900;2023-06-26T03:56:06;7.47;;;4.35;;
20095;SDS011;10207;50.942;6.900;2023-06-26T03:58:32;6.15;;;4.22;;
20095;SDS011;10207;50.942;6.900;2023-06-26T04:00:57;7.18;;;4.40;;
20095;SDS011;10207;50.942;6.900;2023-06-26T04:03:24;9.05;;;4.47;;
20095;SDS011;10207;50.942;6.900;2023-06-26T04:05:50;8.05;;;4.60;;
20095;SDS011;10207;50.942;6.900;2023-06-26T04:08:16;11.43;;;4.95;;
20095;SDS011;10207;50.942;6.900;2023-06-26T04:10:42;9.85;;;4.35;;
20095;SDS011;10207;50.942;6.900;2023-06-26T04:13:11;10.52;;;4.70;;
20095;SDS011;10207;50.942;6.900;2023-06-26T04:15:37;5.93;;;4.25;;
20095;SDS011;10207;50.942;6.900;2023-06-26T04:18:03;12.82;;;4.45;;
20095;SDS011;10207;50.942;6.900;2023-06-26T04:20:29;11.23;;;4.63;;
20095;SDS011;10207;50.942;6.900;2023-06-26T04:22:55;11.65;;;4.38;;
20095;SDS011;10207;50.942;6.900;2023-06-26T04:25:21;14.70;;;4.78;;
20095;SDS011;10207;50.942;6.900;2023-06-26T04:27:47;7.47;;;3.72;;
20095;SDS011;10207;50.942;6.900;2023-06-26T04:30:13;10.77;;;5.10;;
20095;SDS011;10207;50.942;6.900;2023-06-26T04:32:39;9.93;;;4.50;;
20095;SDS011;10207;50.942;6.900;2023-06-26T04:35:05;8.20;;;4.35;;
20095;SDS011;10207;50.942;6.900;2023-06-26T04:37:31;12.18;;;4.68;;
20095;SDS011;10207;50.942;6.900;2023-06-26T04:39:57;9.23;;;4.50;;
20095;SDS011;10207;50.942;6.900;2023-06-26T04:42:22;6.68;;;4.40;;
20095;SDS011;10207;50.942;6.900;2023-06-26T04:44:49;7.22;;;4.43;;
20095;SDS011;10207;50.942;6.900;2023-06-26T04:47:14;9.40;;;4.38;;
20095;SDS011;10207;50.942;6.900;2023-06-26T04:49:41;8.02;;;3.88;;
20095;SDS011;10207;50.942;6.900;2023-06-26T04:52:11;7.35;;;4.38;;
20095;SDS011;10207;50.942;6.900;2023-06-26T04:54:39;7.68;;;4.40;;
20095;SDS011;10207;50.942;6.900;2023-06-26T04:57:05;4.93;;;3.95;;
20095;SDS011;10207;50.942;6.900;2023-06-26T04:59:31;7.35;;;4.38;;
20095;SDS011;10207;50.942;6.900;2023-06-26T05:01:57;6.07;;;4.38;;
20095;SDS011;10207;50.942;6.900;2023-06-26T05:04:23;8.88;;;4.30;;
20095;SDS011;10207;50.942;6.900;2023-06-26T05:06:49;5.38;;;4.03;;
20095;SDS011;10207;50.942;6.900;2023-06-26T05:09:15;7.90;;;4.72;;
20095;SDS011;10207;50.942;6.900;2023-06-26T05:11:41;7.28;;;3.88;;
20095;SDS011;10207;50.942;6.900;2023-06-26T05:14:06;9.38;;;3.85;;
20095;SDS011;10207;50.942;6.900;2023-06-26T05:16:33;6.82;;;4.03;;
20095;SDS011;10207;50.942;6.900;2023-06-26T05:18:59;4.93;;;3.55;;
20095;SDS011;10207;50.942;6.900;2023-06-26T05:21:25;5.70;;;3.97;;
20095;SDS011;10207;50.942;6.900;2023-06-26T05:23:52;8.52;;;4.00;;
20095;SDS011;10207;50.942;6.900;2023-06-26T05:26:20;7.97;;;4.03;;
20095;SDS011;10207;50.942;6.900;2023-06-26T05:28:46;8.88;;;4.45;;
20095;SDS011;10207;50.942;6.900;2023-06-26T05:31:17;6.95;;;3.53;;
20095;SDS011;10207;50.942;6.900;2023-06-26T05:33:43;6.95;;;4.40;;
20095;SDS011;10207;50.942;6.900;2023-06-26T05:36:09;8.75;;;3.95;;
20095;SDS011;10207;50.942;6.900;2023-06-26T05:38:35;9.38;;;4.55;;
20095;SDS011;10207;50.942;6.900;2023-06-26T05:41:01;7.10;;;4.18;;
20095;SDS011;10207;50.942;6.900;2023-06-26T05:43:27;7.53;;;3.90;;
20095;SDS011;10207;50.942;6.900;2023-06-26T05:45:53;10.07;;;4.25;;
20095;SDS011;10207;50.942;6.900;2023-06-26T05:48:19;6.72;;;3.90;;
20095;SDS011;10207;50.942;6.900;2023-06-26T05:50:45;6.07;;;3.63;;
20095;SDS011;10207;50.942;6.900;2023-06-26T05:53:11;8.50;;;4.00;;
20095;SDS011;10207;50.942;6.900;2023-06-26T05:55:37;8.57;;;4.10;;
20095;SDS011;10207;50.942;6.900;2023-06-26T05:58:03;8.30;;;4.22;;
20095;SDS011;10207;50.942;6.900;2023-06-26T06:00:29;6.75;;;3.65;;
20095;SDS011;10207;50.942;6.900;2023-06-26T06:02:55;10.07;;;4.10;;
20095;SDS011;10207;50.942;6.900;2023-06-26T06:05:21;11.60;;;4.38;;
20095;SDS011;10207;50.942;6.900;2023-06-26T06:07:48;7.32;;;3.40;;
20095;SDS011;10207;50.942;6.900;2023-06-26T06:10:14;7.45;;;3.13;;
20095;SDS011;10207;50.942;6.900;2023-06-26T06:12:40;8.85;;;4.43;;
20095;SDS011;10207;50.942;6.900;2023-06-26T06:15:06;6.30;;;4.00;;
20095;SDS011;10207;50.942;6.900;2023-06-26T06:17:32;7.05;;;3.70;;
20095;SDS011;10207;50.942;6.900;2023-06-26T06:19:58;7.28;;;3.50;;
20095;SDS011;10207;50.942;6.900;2023-06-26T06:22:24;11.15;;;3.55;;
20095;SDS011;10207;50.942;6.900;2023-06-26T06:24:51;7.72;;;3.88;;
20095;SDS011;10207;50.942;6.900;2023-06-26T06:27:17;7.97;;;3.53;;
20095;SDS011;10207;50.942;6.900;2023-06-26T06:29:43;8.20;;;3.70;;
20095;SDS011;10207;50.942;6.900;2023-06-26T06:32:09;8.45;;;3.78;;
20095;SDS011;10207;50.942;6.900;2023-06-26T06:34:35;7.72;;;3.35;;
20095;SDS011;10207;50.942;6.900;2023-06-26T06:37:02;7.13;;;3.55;;
20095;SDS011;10207;50.942;6.900;2023-06-26T06:39:27;8.20;;;3.60;;
20095;SDS011;10207;50.942;6.900;2023-06-26T06:41:53;10.57;;;4.25;;
20095;SDS011;10207;50.942;6.900;2023-06-26T06:44:20;8.93;;;4.03;;
20095;SDS011;10207;50.942;6.900;2023-06-26T06:46:47;10.90;;;3.15;;
20095;SDS011;10207;50.942;6.900;2023-06-26T06:49:13;13.43;;;4.00;;
20095;SDS011;10207;50.942;6.900;2023-06-26T06:51:39;6.40;;;3.85;;
20095;SDS011;10207;50.942;6.900;2023-06-26T06:54:05;9.00;;;4.00;;
20095;SDS011;10207;50.942;6.900;2023-06-26T06:56:31;5.30;;;3.10;;
20095;SDS011;10207;50.942;6.900;2023-06-26T06:58:57;9.45;;;4.38;;
20095;SDS011;10207;50.942;6.900;2023-06-26T07:01:23;9.65;;;3.35;;
20095;SDS011;10207;50.942;6.900;2023-06-26T07:03:49;8.52;;;3.90;;
20095;SDS011;10207;50.942;6.900;2023-06-26T07:06:15;9.40;;;3.50;;
20095;SDS011;10207;50.942;6.900;2023-06-26T07:08:41;9.90;;;4.10;;
20095;SDS011;10207;50.942;6.900;2023-06-26T07:11:07;7.22;;;3.60;;
20095;SDS011;10207;50.942;6.900;2023-06-26T07:13:33;9.02;;;3.55;;
20095;SDS011;10207;50.942;6.900;2023-06-26T07:15:59;7.68;;;3.85;;
20095;SDS011;10207;50.942;6.900;2023-06-26T07:18:25;11.73;;;4.43;;
20095;SDS011;10207;50.942;6.900;2023-06-26T07:20:51;12.40;;;4.10;;
20095;SDS011;10207;50.942;6.900;2023-06-26T07:23:17;9.77;;;4.10;;
20095;SDS011;10207;50.942;6.900;2023-06-26T07:25:43;8.75;;;3.90;;
20095;SDS011;10207;50.942;6.900;2023-06-26T07:31:00;8.57;;;3.92;;
20095;SDS011;10207;50.942;6.900;2023-06-26T07:33:50;6.38;;;3.60;;
20095;SDS011;10207;50.942;6.900;2023-06-26T07:36:41;12.63;;;4.07;;
20095;SDS011;10207;50.942;6.900;2023-06-26T07:39:07;13.95;;;3.70;;
20095;SDS011;10207;50.942;6.900;2023-06-26T07:41:34;7.78;;;3.75;;
20095;SDS011;10207;50.942;6.900;2023-06-26T07:44:00;10.68;;;4.15;;
20095;SDS011;10207;50.942;6.900;2023-06-26T07:46:51;7.05;;;3.25;;
20095;SDS011;10207;50.942;6.900;2023-06-26T07:49:43;10.95;;;3.78;;
20095;SDS011;10207;50.942;6.900;2023-06-26T07:52:09;7.03;;;3.58;;
20095;SDS011;10207;50.942;6.900;2023-06-26T07:54:36;9.80;;;3.63;;
20095;SDS011;10207;50.942;6.900;2023-06-26T07:57:03;9.55;;;4.00;;
20095;SDS011;10207;50.942;6.900;2023-06-26T07:59:57;12.80;;;3.65;;
20095;SDS011;10207;50.942;6.900;2023-06-26T08:02:23;9.00;;;3.13;;
20095;SDS011;10207;50.942;6.900;2023-06-26T08:04:49;7.32;;;3.63;;
20095;SDS011;10207;50.942;6.900;2023-06-26T08:07:15;10.75;;;3.30;;
20095;SDS011;10207;50.942;6.900;2023-06-26T08:09:41;12.38;;;3.47;;
20095;SDS011;10207;50.942;6.900;2023-06-26T08:12:07;8.82;;;3.60;;
20095;SDS011;10207;50.942;6.900;2023-06-26T08:15:23;8.63;;;3.88;;
20095;SDS011;10207;50.942;6.900;2023-06-26T08:17:49;9.10;;;3.33;;
20095;SDS011;10207;50.942;6.900;2023-06-26T08:20:16;10.07;;;3.90;;
20095;SDS011;10207;50.942;6.900;2023-06-26T08:22:42;14.20;;;3.92;;
20095;SDS011;10207;50.942;6.900;2023-06-26T08:25:08;10.35;;;3.85;;
20095;SDS011;10207;50.942;6.900;2023-06-26T08:27:34;10.00;;;3.60;;
20095;SDS011;10207;50.942;6.900;2023-06-26T08:30:00;8.13;;;3.10;;
20095;SDS011;10207;50.942;6.900;2023-06-26T08:32:26;7.63;;;3.30;;
20095;SDS011;10207;50.942;6.900;2023-06-26T08:34:52;13.35;;;3.65;;
20095;SDS011;10207;50.942;6.900;2023-06-26T08:37:18;11.15;;;4.30;;
20095;SDS011;10207;50.942;6.900;2023-06-26T08:39:44;8.13;;;3.50;;
20095;SDS011;10207;50.942;6.900;2023-06-26T08:42:10;8.50;;;3.10;;
20095;SDS011;10207;50.942;6.900;2023-06-26T08:44:36;8.68;;;3.80;;
20095;SDS011;10207;50.942;6.900;2023-06-26T08:47:02;8.65;;;3.25;;
20095;SDS011;10207;50.942;6.900;2023-06-26T08:49:37;9.35;;;3.63;;
20095;SDS011;10207;50.942;6.900;2023-06-26T08:52:08;8.82;;;3.35;;
20095;SDS011;10207;50.942;6.900;2023-06-26T08:54:37;13.48;;;3.20;;
20095;SDS011;10207;50.942;6.900;2023-06-26T08:57:06;6.57;;;2.95;;
20095;SDS011;10207;50.942;6.900;2023-06-26T08:59:32;7.65;;;3.20;;
20095;SDS011;10207;50.942;6.900;2023-06-26T09:01:58;7.90;;;3.50;;
20095;SDS011;10207;50.942;6.900;2023-06-26T09:04:24;8.18;;;2.92;;
20095;SDS011;10207;50.942;6.900;2023-06-26T09:06:50;7.82;;;3.20;;
20095;SDS011;10207;50.942;6.900;2023-06-26T09:09:16;7.25;;;3.42;;
20095;SDS011;10207;50.942;6.900;2023-06-26T09:11:42;8.27;;;3.08;;
20095;SDS011;10207;50.942;6.900;2023-06-26T09:14:08;9.15;;;3.40;;
20095;SDS011;10207;50.942;6.900;2023-06-26T09:16:39;11.35;;;3.40;;
20095;SDS011;10207;50.942;6.900;2023-06-26T09:19:08;11.10;;;3.10;;
20095;SDS011;10207;50.942;6.900;2023-06-26T09:21:34;8.15;;;3.10;;
20095;SDS011;10207;50.942;6.900;2023-06-26T09:24:00;10.77;;;3.22;;
20095;SDS011;10207;50.942;6.900;2023-06-26T09:26:26;11.40;;;3.05;;
20095;SDS011;10207;50.942;6.900;2023-06-26T09:28:52;8.02;;;3.33;;
20095;SDS011;10207;50.942;6.900;2023-06-26T09:31:18;11.10;;;2.90;;
20095;SDS011;10207;50.942;6.900;2023-06-26T09:33:46;8.10;;;3.15;;
20095;SDS011;10207;50.942;6.900;2023-06-26T09:36:20;8.32;;;2.88;;
20095;SDS011;10207;50.942;6.900;2023-06-26T09:38:49;6.63;;;2.75;;
20095;SDS011;10207;50.942;6.900;2023-06-26T09:41:16;9.60;;;2.95;;
20095;SDS011;10207;50.942;6.900;2023-06-26T09:43:48;6.55;;;2.85;;
20095;SDS011;10207;50.942;6.900;2023-06-26T09:46:23;10.27;;;3.10;;
20095;SDS011;10207;50.942;6.900;2023-06-26T09:48:50;11.95;;;3.63;;
20095;SDS011;10207;50.942;6.900;2023-06-26T09:51:16;9.10;;;3.15;;
20095;SDS011;10207;50.942;6.900;2023-06-26T09:53:42;8.45;;;2.90;;
20095;SDS011;10207;50.942;6.900;2023-06-26T09:56:14;10.73;;;3.20;;
20095;SDS011;10207;50.942;6.900;2023-06-26T09:58:42;8.95;;;3.10;;
20095;SDS011;10207;50.942;6.900;2023-06-26T10:01:08;7.57;;;3.20;;
20095;SDS011;10207;50.942;6.900;2023-06-26T10:03:35;10.02;;;3.13;;
20095;SDS011;10207;50.942;6.900;2023-06-26T10:06:02;8.27;;;3.30;;
20095;SDS011;10207;50.942;6.900;2023-06-26T10:08:28;12.93;;;2.65;;
20095;SDS011;10207;50.942;6.900;2023-06-26T10:10:55;7.88;;;2.28;;
20095;SDS011;10207;50.942;6.900;2023-06-26T10:13:22;11.50;;;3.22;;
20095;SDS011;10207;50.942;6.900;2023-06-26T10:15:51;8.85;;;2.80;;
20095;SDS011;10207;50.942;6.900;2023-06-26T10:18:17;10.13;;;3.08;;
20095;SDS011;10207;50.942;6.900;2023-06-26T10:20:47;9.63;;;3.03;;
20095;SDS011;10207;50.942;6.900;2023-06-26T10:23:14;11.30;;;2.85;;
20095;SDS011;10207;50.942;6.900;2023-06-26T10:25:41;9.60;;;3.28;;
20095;SDS011;10207;50.942;6.900;2023-06-26T10:28:08;8.90;;;2.50;;
20095;SDS011;10207;50.942;6.900;2023-06-26T10:30:35;9.30;;;2.45;;
20095;SDS011;10207;50.942;6.900;2023-06-26T10:33:02;6.85;;;2.35;;
20095;SDS011;10207;50.942;6.900;2023-06-26T10:35:29;4.55;;;2.60;;
20095;SDS011;10207;50.942;6.900;2023-06-26T10:38:02;10.60;;;2.65;;
20095;SDS011;10207;50.942;6.900;2023-06-26T10:40:42;5.47;;;2.50;;
20095;SDS011;10207;50.942;6.900;2023-06-26T10:43:08;5.95;;;2.00;;
20095;SDS011;10207;50.942;6.900;2023-06-26T10:45:34;9.15;;;2.38;;
20095;SDS011;10207;50.942;6.900;2023-06-26T10:48:01;7.32;;;3.10;;
20095;SDS011;10207;50.942;6.900;2023-06-26T10:50:28;5.05;;;2.08;;
20095;SDS011;10207;50.942;6.900;2023-06-26T10:53:40;8.25;;;2.30;;
20095;SDS011;10207;50.942;6.900;2023-06-26T10:55:41;4.20;;;1.80;;
20095;SDS011;10207;50.942;6.900;2023-06-26T10:58:26;5.10;;;1.73;;
20095;SDS011;10207;50.942;6.900;2023-06-26T11:00:52;4.93;;;1.98;;
20095;SDS011;10207;50.942;6.900;2023-06-26T11:03:22;7.90;;;2.25;;
20095;SDS011;10207;50.942;6.900;2023-06-26T11:08:44;8.90;;;1.98;;
20095;SDS011;10207;50.942;6.900;2023-06-26T11:11:10;8.45;;;1.50;;
20095;SDS011;10207;50.942;6.900;2023-06-26T11:13:36;4.80;;;2.05;;
20095;SDS011;10207;50.942;6.900;2023-06-26T11:16:02;4.93;;;2.00;;
20095;SDS011;10207;50.942;6.900;2023-06-26T11:18:29;7.57;;;1.80;;
20095;SDS011;10207;50.942;6.900;2023-06-26T11:21:03;6.90;;;2.13;;
20095;SDS011;10207;50.942;6.900;2023-06-26T11:23:29;8.15;;;2.67;;
20095;SDS011;10207;50.942;6.900;2023-06-26T11:25:56;5.40;;;2.00;;
20095;SDS011;10207;50.942;6.900;2023-06-26T11:28:23;4.28;;;1.73;;
20095;SDS011;10207;50.942;6.900;2023-06-26T11:30:49;6.20;;;2.15;;
20095;SDS011;10207;50.942;6.900;2023-06-26T11:33:15;7.03;;;1.92;;
20095;SDS011;10207;50.942;6.900;2023-06-26T11:35:41;6.63;;;1.75;;
20095;SDS011;10207;50.942;6.900;2023-06-26T11:38:07;7.22;;;1.73;;
20095;SDS011;10207;50.942;6.900;2023-06-26T11:40:35;9.07;;;1.77;;
20095;SDS011;10207;50.942;6.900;2023-06-26T11:43:01;4.80;;;1.60;;
20095;SDS011;10207;50.942;6.900;2023-06-26T11:45:27;6.22;;;1.88;;
20095;SDS011;10207;50.942;6.900;2023-06-26T11:47:56;5.13;;;2.05;;
20095;SDS011;10207;50.942;6.900;2023-06-26T11:50:23;6.82;;;1.80;;
20095;SDS011;10207;50.942;6.900;2023-06-26T11:52:53;8.02;;;1.63;;
20095;SDS011;10207;50.942;6.900;2023-06-26T11:55:20;5.07;;;1.67;;
20095;SDS011;10207;50.942;6.900;2023-06-26T11:57:50;4.90;;;1.75;;
20095;SDS011;10207;50.942;6.900;2023-06-26T12:00:18;5.35;;;1.48;;
20095;SDS011;10207;50.942;6.900;2023-06-26T12:02:45;3.33;;;1.70;;
20095;SDS011;10207;50.942;6.900;2023-06-26T12:05:18;6.03;;;1.63;;
20095;SDS011;10207;50.942;6.900;2023-06-26T12:07:45;5.75;;;1.50;;
20095;SDS011;10207;50.942;6.900;2023-06-26T12:10:13;3.83;;;1.40;;
20095;SDS011;10207;50.942;6.900;2023-06-26T12:12:40;4.40;;;1.23;;
20095;SDS011;10207;50.942;6.900;2023-06-26T12:15:06;5.50;;;1.48;;
20095;SDS011;10207;50.942;6.900;2023-06-26T12:17:33;7.47;;;1.90;;
20095;SDS011;10207;50.942;6.900;2023-06-26T12:20:02;4.68;;;1.42;;
20095;SDS011;10207;50.942;6.900;2023-06-26T12:22:34;7.03;;;1.55;;
20095;SDS011;10207;50.942;6.900;2023-06-26T12:25:00;7.53;;;1.45;;
20095;SDS011;10207;50.942;6.900;2023-06-26T12:27:26;5.07;;;1.52;;
20095;SDS011;10207;50.942;6.900;2023-06-26T12:29:53;7.97;;;2.03;;
20095;SDS011;10207;50.942;6.900;2023-06-26T12:32:21;8.95;;;1.55;;
20095;SDS011;10207;50.942;6.900;2023-06-26T12:34:48;9.80;;;2.20;;
20095;SDS011;10207;50.942;6.900;2023-06-26T12:37:15;5.85;;;1.70;;
20095;SDS011;10207;50.942;6.900;2023-06-26T12:42:13;5.75;;;1.73;;
20095;SDS011;10207;50.942;6.900;2023-06-26T12:44:39;4.40;;;1.20;;
20095;SDS011;10207;50.942;6.900;2023-06-26T12:47:05;5.03;;;1.40;;
20095;SDS011;10207;50.942;6.900;2023-06-26T12:52:02;7.20;;;1.70;;
20095;SDS011;10207;50.942;6.900;2023-06-26T12:54:28;8.45;;;1.25;;
20095;SDS011;10207;50.942;6.900;2023-06-26T12:56:55;2.72;;;1.20;;
20095;SDS011;10207;50.942;6.900;2023-06-26T12:59:21;7.55;;;1.35;;
20095;SDS011;10207;50.942;6.900;2023-06-26T13:01:47;4.45;;;1.23;;
20095;SDS011;10207;50.942;6.900;2023-06-26T13:04:13;7.93;;;1.08;;
20095;SDS011;10207;50.942;6.900;2023-06-26T13:06:39;3.28;;;1.30;;
20095;SDS011;10207;50.942;6.900;2023-06-26T13:09:05;4.40;;;1.33;;
20095;SDS011;10207;50.942;6.900;2023-06-26T13:11:32;6.65;;;1.67;;
20095;SDS011;10207;50.942;6.900;2023-06-26T13:13:58;4.80;;;1.52;;
20095;SDS011;10207;50.942;6.900;2023-06-26T13:16:24;7.28;;;1.20;;
20095;SDS011;10207;50.942;6.900;2023-06-26T13:18:50;9.68;;;1.77;;
20095;SDS011;10207;50.942;6.900;2023-06-26T13:21:16;10.48;;;1.75;;
20095;SDS011;10207;50.942;6.900;2023-06-26T13:23:43;13.25;;;2.45;;
20095;SDS011;10207;50.942;6.900;2023-06-26T13:26:09;5.93;;;1.38;;
20095;SDS011;10207;50.942;6.900;2023-06-26T13:28:36;3.95;;;1.30;;
20095;SDS011;10207;50.942;6.900;2023-06-26T13:31:02;13.57;;;2.25;;
20095;SDS011;10207;50.942;6.900;2023-06-26T13:33:28;8.80;;;1.45;;
20095;SDS011;10207;50.942;6.900;2023-06-26T13:35:54;7.85;;;1.17;;
20095;SDS011;10207;50.942;6.900;2023-06-26T13:38:20;6.43;;;1.15;;
20095;SDS011;10207;50.942;6.900;2023-06-26T13:40:53;5.55;;;1.35;;
20095;SDS011;10207;50.942;6.900;2023-06-26T13:43:20;3.95;;;1.10;;
20095;SDS011;10207;50.942;6.900;2023-06-26T13:45:46;8.13;;;0.98;;
20095;SDS011;10207;50.942;6.900;2023-06-26T13:48:12;7.18;;;0.98;;
20095;SDS011;10207;50.942;6.900;2023-06-26T13:50:38;7.70;;;1.35;;
20095;SDS011;10207;50.942;6.900;2023-06-26T13:53:04;5.65;;;1.63;;
20095;SDS011;10207;50.942;6.900;2023-06-26T13:55:32;5.68;;;1.17;;
20095;SDS011;10207;50.942;6.900;2023-06-26T13:57:58;4.43;;;0.85;;
20095;SDS011;10207;50.942;6.900;2023-06-26T14:00:25;2.72;;;0.80;;
20095;SDS011;10207;50.942;6.900;2023-06-26T14:02:51;3.17;;;1.08;;
20095;SDS011;10207;50.942;6.900;2023-06-26T14:05:17;5.00;;;0.98;;
20095;SDS011;10207;50.942;6.900;2023-06-26T14:07:44;4.68;;;1.23;;
20095;SDS011;10207;50.942;6.900;2023-06-26T14:10:10;3.08;;;1.42;;
20095;SDS011;10207;50.942;6.900;2023-06-26T14:12:36;6.50;;;1.00;;
20095;SDS011;10207;50.942;6.900;2023-06-26T14:15:02;6.10;;;0.90;;
20095;SDS011;10207;50.942;6.900;2023-06-26T14:17:30;2.20;;;0.90;;
20095;SDS011;10207;50.942;6.900;2023-06-26T14:19:56;4.05;;;1.02;;
20095;SDS011;10207;50.942;6.900;2023-06-26T14:22:22;5.63;;;2.00;;
20095;SDS011;10207;50.942;6.900;2023-06-26T14:24:49;2.72;;;1.15;;
20095;SDS011;10207;50.942;6.900;2023-06-26T14:27:15;4.28;;;0.88;;
20095;SDS011;10207;50.942;6.900;2023-06-26T14:29:42;5.63;;;1.10;;
20095;SDS011;10207;50.942;6.900;2023-06-26T14:32:08;5.40;;;2.50;;
20095;SDS011;10207;50.942;6.900;2023-06-26T14:34:34;4.60;;;1.60;;
20095;SDS011;10207;50.942;6.900;2023-06-26T14:37:00;8.15;;;1.77;;
20095;SDS011;10207;50.942;6.900;2023-06-26T14:39:26;8.80;;;1.80;;
20095;SDS011;10207;50.942;6.900;2023-06-26T14:41:52;2.58;;;1.10;;
20095;SDS011;10207;50.942;6.900;2023-06-26T14:44:18;5.00;;;1.08;;
20095;SDS011;10207;50.942;6.900;2023-06-26T14:46:44;5.45;;;1.63;;
20095;SDS011;10207;50.942;6.900;2023-06-26T14:49:10;5.15;;;0.90;;
20095;SDS011;10207;50.942;6.900;2023-06-26T14:51:36;6.85;;;1.40;;
20095;SDS011;10207;50.942;6.900;2023-06-26T14:54:04;5.78;;;1.00;;
20095;SDS011;10207;50.942;6.900;2023-06-26T14:56:30;8.85;;;1.30;;
20095;SDS011;10207;50.942;6.900;2023-06-26T14:58:55;3.20;;;1.15;;
20095;SDS011;10207;50.942;6.900;2023-06-26T15:01:21;8.13;;;1.20;;